Time;durP1;ratioP1;P1;durP2;ratioP2;P2;SDS_P1;SDS_P2;PMS_P1;PMS_P2;Temp;Humidity;BMP_temperature;BMP_pressure;BME280_temperature;BME280_humidity;BME280_pressure;Samples;Min_cycle;Max_cycle;Signal;HPM_P1;HPM_P2
2022/04/20 00:01:53;;;;;;;6.50;4.00;;;;;;;5.93;70.96;100188.94;88245;1274;96713;-76
2022/04/20 00:04:05;;;;;;;6.30;4.40;;;;;;;5.94;71.06;100184.42;88210;1274;87328;-76
2022/04/20 00:06:18;;;;;;;5.30;4.20;;;;;;;5.96;71.14;100187.94;88252;1274;95400;-60
2022/04/20 00:08:26;;;;;;;5.70;4.40;;;;;;;6.01;71.16;100190.09;88220;1274;80748;-77
2022/04/20 00:10:38;;;;;;;5.90;4.10;;;;;;;6.03;71.19;100185.23;88234;1273;82580;-75
2022/04/20 00:12:50;;;;;;;5.90;3.80;;;;;;;6.04;71.22;100184.33;88258;1273;97388;-76
2022/04/20 00:15:02;;;;;;;6.60;4.60;;;;;;;6.08;71.17;100183.27;88243;1274;88677;-61
2022/04/20 00:17:12;;;;;;;5.50;4.10;;;;;;;6.09;71.41;100179.86;88229;1273;94938;-59
2022/04/20 00:19:20;;;;;;;6.90;4.00;;;;;;;6.11;71.27;100182.94;88204;1274;78620;-76
2022/04/20 00:21:30;;;;;;;5.90;4.60;;;;;;;6.10;71.46;100180.28;88232;1274;80791;-77
2022/04/20 00:23:38;;;;;;;5.80;4.90;;;;;;;6.12;71.50;100178.79;88163;1274;99139;-75
2022/04/20 00:25:48;;;;;;;7.60;5.00;;;;;;;6.10;71.46;100176.05;88197;1275;89344;-75
2022/04/20 00:27:57;;;;;;;6.20;5.00;;;;;;;6.10;71.59;100177.11;88166;1274;95143;-75
2022/04/20 00:30:08;;;;;;;7.60;4.90;;;;;;;6.13;71.53;100175.36;88174;1274;81045;-59
2022/04/20 00:32:17;;;;;;;6.50;5.20;;;;;;;6.11;71.60;100171.10;88195;1274;82067;-60
2022/04/20 00:34:26;;;;;;;6.80;5.10;;;;;;;6.12;71.79;100171.85;88158;1275;98047;-76
2022/04/20 00:36:38;;;;;;;5.70;4.90;;;;;;;6.08;71.86;100169.23;88188;1275;88294;-77
2022/04/20 00:38:50;;;;;;;7.40;5.10;;;;;;;6.06;71.99;100166.45;88217;1274;95173;-76
2022/04/20 00:41:02;;;;;;;7.90;5.30;;;;;;;6.04;71.92;100162.55;88182;1274;80107;-76
2022/04/20 00:43:11;;;;;;;5.80;5.20;;;;;;;6.06;72.00;100161.61;88184;1274;82175;-75
2022/04/20 00:45:24;;;;;;;6.50;4.80;;;;;;;6.07;72.16;100159.73;88200;1274;98018;-76
2022/04/20 00:47:37;;;;;;;6.90;5.40;;;;;;;6.01;72.45;100154.84;88166;1274;87051;-76
2022/04/20 00:49:49;;;;;;;6.30;5.10;;;;;;;6.00;72.36;100153.55;88178;1274;95421;-76
2022/04/20 00:52:00;;;;;;;5.10;4.60;;;;;;;6.02;72.49;100149.03;88205;1274;79230;-76
2022/04/20 00:54:09;;;;;;;5.60;4.30;;;;;;;6.02;72.50;100147.56;88179;1274;81374;-76
2022/04/20 00:56:18;;;;;;;6.60;5.50;;;;;;;6.04;72.73;100143.98;88165;1274;96911;-76
2022/04/20 00:58:27;;;;;;;6.80;5.20;;;;;;;6.06;72.61;100147.16;88209;1274;89449;-74
2022/04/20 01:00:36;;;;;;;6.50;5.30;;;;;;;6.10;72.71;100146.73;88155;1274;93154;-76
2022/04/20 01:02:45;;;;;;;6.40;5.50;;;;;;;6.07;72.76;100141.10;88182;1274;80153;-77
2022/04/20 01:04:53;;;;;;;7.40;5.60;;;;;;;6.08;72.66;100134.62;88182;1274;81969;-61
2022/04/20 01:07:13;;;;;;;5.60;5.00;;;;;;;6.10;72.74;100129.41;88174;1274;99345;-60
2022/04/20 01:09:22;;;;;;;6.80;5.90;;;;;;;6.12;72.77;100125.95;88189;1274;89052;-77
2022/04/20 01:11:31;;;;;;;6.10;5.40;;;;;;;6.11;72.91;100119.00;88176;1274;93206;-76
2022/04/20 01:13:40;;;;;;;7.40;5.80;;;;;;;6.11;72.84;100114.59;88167;1274;80464;-60
2022/04/20 01:15:49;;;;;;;8.70;6.10;;;;;;;6.14;72.89;100110.00;88192;1274;82998;-60
2022/04/20 01:17:58;;;;;;;8.50;6.20;;;;;;;6.15;72.95;100107.48;88187;1274;98059;-59
2022/04/20 01:20:14;;;;;;;7.70;6.30;;;;;;;6.11;73.05;100115.25;88180;1274;89529;-76
2022/04/20 01:22:23;;;;;;;8.40;6.30;;;;;;;6.11;73.00;100112.31;88174;1274;94927;-77
2022/04/20 01:24:36;;;;;;;7.70;6.20;;;;;;;6.12;73.28;100113.95;88186;1274;79745;-76
2022/04/20 01:26:46;;;;;;;8.30;6.20;;;;;;;6.14;73.32;100112.26;88215;1274;80886;-77
2022/04/20 01:28:59;;;;;;;8.40;6.70;;;;;;;6.19;73.35;100111.05;88163;1274;98851;-60
2022/04/20 01:31:08;;;;;;;8.40;6.70;;;;;;;6.18;73.37;100105.06;88190;1274;89010;-59
2022/04/20 01:33:20;;;;;;;7.90;6.90;;;;;;;6.19;73.48;100100.23;88189;1274;95535;-61
2022/04/20 01:35:29;;;;;;;8.70;6.30;;;;;;;6.18;73.58;100095.04;88178;1274;78572;-77
2022/04/20 01:37:41;;;;;;;7.30;6.60;;;;;;;6.17;73.39;100086.23;88208;1274;82020;-75
2022/04/20 01:39:53;;;;;;;8.30;7.20;;;;;;;6.18;73.50;100082.66;88084;1276;99076;-77
2022/04/20 01:42:02;;;;;;;8.30;6.70;;;;;;;6.19;73.56;100079.69;88131;1274;89501;-76
2022/04/20 01:44:14;;;;;;;9.30;7.30;;;;;;;6.17;73.65;100081.70;88159;1274;94128;-60
2022/04/20 01:46:23;;;;;;;9.00;6.00;;;;;;;6.11;73.84;100078.15;88124;1276;80092;-60
2022/04/20 01:48:36;;;;;;;7.00;6.30;;;;;;;6.15;73.87;100075.94;88163;1274;81682;-75
2022/04/20 01:53:13;;;;;;;9.60;6.70;;;;;;;6.17;73.85;100063.66;88167;1274;87822;-75
2022/04/20 01:55:23;;;;;;;8.30;6.50;;;;;;;6.21;73.94;100059.80;88204;1274;93753;-76
2022/04/20 01:57:33;;;;;;;7.30;6.00;;;;;;;6.27;74.07;100061.88;88179;1274;79001;-77
2022/04/20 01:59:44;;;;;;;7.50;6.70;;;;;;;6.25;74.29;100059.36;88221;1274;82962;-75
2022/04/20 02:04:19;;;;;;;8.30;6.40;;;;;;;6.23;74.42;100055.30;88156;1274;87610;-60
2022/04/20 02:06:28;;;;;;;8.10;6.40;;;;;;;6.23;74.36;100051.05;88160;1274;95615;-60
2022/04/20 02:08:38;;;;;;;7.80;6.30;;;;;;;6.22;74.26;100049.52;88160;1274;79440;-59
2022/04/20 02:10:47;;;;;;;9.20;6.20;;;;;;;6.20;74.71;100048.14;88176;1274;80784;-61
2022/04/20 02:12:55;;;;;;;6.80;6.10;;;;;;;6.15;74.60;100044.56;88186;1274;98486;-59
2022/04/20 02:15:06;;;;;;;8.10;6.10;;;;;;;6.16;74.71;100039.13;88197;1274;88966;-75
2022/04/20 02:17:14;;;;;;;6.70;5.40;;;;;;;6.18;74.81;100038.34;88179;1274;94283;-75
2022/04/20 02:19:23;;;;;;;7.90;6.10;;;;;;;6.20;74.92;100033.89;88148;1274;82483;-74
2022/04/20 02:21:35;;;;;;;6.70;5.30;;;;;;;6.14;75.01;100031.25;88197;1274;81142;-76
2022/04/20 02:23:44;;;;;;;9.00;6.30;;;;;;;6.16;75.11;100029.81;88199;1274;97965;-59
2022/04/20 02:25:54;;;;;;;7.00;5.90;;;;;;;6.17;75.25;100027.39;88182;1274;88089;-59
2022/04/20 02:28:03;;;;;;;6.90;6.00;;;;;;;6.16;75.28;100025.65;88165;1274;96239;-59
2022/04/20 02:30:13;;;;;;;8.90;5.80;;;;;;;6.19;75.60;100027.33;88186;1274;83356;-60
2022/04/20 02:32:22;;;;;;;6.90;5.60;;;;;;;6.16;75.62;100020.40;88191;1274;83321;-60
2022/04/20 02:34:32;;;;;;;7.70;6.00;;;;;;;6.16;75.73;100024.45;88175;1274;98778;-76
2022/04/20 02:36:41;;;;;;;7.70;6.10;;;;;;;6.15;75.97;100020.89;88180;1274;87792;-75
2022/04/20 02:38:50;;;;;;;6.90;5.90;;;;;;;6.08;76.23;100015.71;88178;1274;93288;-74
2022/04/20 02:41:00;;;;;;;7.40;6.00;;;;;;;6.09;76.06;100011.63;88188;1274;80353;-76
2022/04/20 02:43:09;;;;;;;8.20;6.30;;;;;;;6.07;76.22;100009.40;88155;1274;82024;-75
2022/04/20 02:45:21;;;;;;;7.20;6.40;;;;;;;6.09;76.27;100003.52;88176;1274;96738;-76
2022/04/20 02:47:30;;;;;;;6.70;5.80;;;;;;;6.09;76.36;100002.74;88184;1274;88463;-76
2022/04/20 02:49:39;;;;;;;8.10;6.30;;;;;;;6.08;76.36;100003.23;88159;1274;95067;-62
2022/04/20 02:51:48;;;;;;;6.70;5.80;;;;;;;6.07;76.62;100001.73;88132;1276;81231;-60
2022/04/20 02:53:57;;;;;;;6.60;5.80;;;;;;;6.11;76.71;99999.75;88179;1274;83373;-78
2022/04/20 02:56:10;;;;;;;7.20;5.90;;;;;;;6.13;76.57;99995.63;88182;1274;99319;-75
2022/04/20 02:58:20;;;;;;;7.10;5.90;;;;;;;6.10;76.68;99995.60;88213;1274;88171;-76
2022/04/20 03:00:29;;;;;;;6.30;5.70;;;;;;;6.11;76.89;99994.65;88174;1272;95415;-61
2022/04/20 03:02:40;;;;;;;8.20;6.30;;;;;;;6.09;76.79;99992.55;88167;1274;79053;-61
2022/04/20 03:04:52;;;;;;;7.30;6.10;;;;;;;6.08;76.75;99987.79;88125;1276;83366;-61
2022/04/20 03:07:01;;;;;;;7.50;6.20;;;;;;;6.07;76.97;99989.33;88174;1274;99226;-61
2022/04/20 03:09:10;;;;;;;7.00;5.90;;;;;;;6.08;77.09;99986.04;88180;1274;88142;-62
2022/04/20 03:11:19;;;;;;;7.00;5.80;;;;;;;6.11;77.13;99984.34;88158;1274;95661;-62
2022/04/20 03:13:31;;;;;;;8.60;5.60;;;;;;;6.08;77.43;99984.27;88200;1274;82612;-76
2022/04/20 03:15:43;;;;;;;6.80;5.70;;;;;;;6.04;77.31;99982.37;88180;1274;82280;-77
2022/04/20 03:17:52;;;;;;;5.60;5.00;;;;;;;6.03;77.40;99981.94;88115;1277;98691;-75
2022/04/20 03:20:05;;;;;;;6.10;5.40;;;;;;;6.09;77.30;99978.54;88177;1274;87502;-76
2022/04/20 03:22:13;;;;;;;5.30;4.80;;;;;;;6.13;77.68;99975.40;88183;1274;94051;-76
2022/04/20 03:24:22;;;;;;;5.90;5.30;;;;;;;6.16;77.55;99973.46;88179;1274;78604;-61
2022/04/20 03:26:34;;;;;;;6.80;5.40;;;;;;;6.14;77.69;99974.30;88113;1276;83739;-62
2022/04/20 03:28:43;;;;;;;7.10;5.50;;;;;;;6.14;77.72;99973.19;88192;1274;99289;-76
2022/04/20 03:30:53;;;;;;;6.10;5.10;;;;;;;6.16;77.81;99972.05;88173;1274;89028;-77
2022/04/20 03:33:02;;;;;;;5.80;5.00;;;;;;;6.17;77.71;99971.45;88191;1274;94938;-76
2022/04/20 03:35:12;;;;;;;5.90;4.80;;;;;;;6.19;77.90;99966.67;88178;1274;82126;-61
2022/04/20 03:37:21;;;;;;;5.40;4.70;;;;;;;6.20;77.95;99964.42;88123;1276;80702;-61
2022/04/20 03:39:30;;;;;;;5.50;4.50;;;;;;;6.21;77.89;99962.71;88181;1274;97223;-76
2022/04/20 03:41:39;;;;;;;5.90;5.20;;;;;;;6.24;77.87;99957.65;88184;1274;89618;-78
2022/04/20 03:43:48;;;;;;;5.80;4.70;;;;;;;6.25;78.01;99955.09;88153;1274;94424;-76
2022/04/20 03:46:00;;;;;;;4.90;4.40;;;;;;;6.27;78.03;99958.10;87556;1274;861389;-77
2022/04/20 03:48:13;;;;;;;4.80;4.20;;;;;;;6.29;77.95;99954.35;88182;1274;82748;-75
2022/04/20 03:50:22;;;;;;;5.00;4.50;;;;;;;6.32;78.14;99951.28;88208;1274;97617;-60
2022/04/20 03:52:31;;;;;;;4.90;4.40;;;;;;;6.34;78.03;99950.73;88198;1274;86858;-61
2022/04/20 03:54:40;;;;;;;4.90;4.40;;;;;;;6.34;77.90;99949.27;88159;1274;95671;-61
2022/04/20 03:57:04;;;;;;;4.80;4.10;;;;;;;6.35;78.03;99948.99;88178;1274;82004;-60
2022/04/20 03:59:13;;;;;;;5.30;4.70;;;;;;;6.39;78.28;99945.96;88184;1274;82060;-75
2022/04/20 04:01:22;;;;;;;7.00;5.30;;;;;;;6.34;78.27;99946.22;88186;1274;98737;-75
2022/04/20 04:03:31;;;;;;;6.10;4.80;;;;;;;6.33;78.41;99947.55;88182;1274;89114;-61
2022/04/20 04:05:40;;;;;;;6.00;4.70;;;;;;;6.33;78.27;99947.98;88163;1274;96312;-61
2022/04/20 04:07:49;;;;;;;6.10;4.90;;;;;;;6.34;78.65;99944.27;88169;1274;82172;-61
2022/04/20 04:09:58;;;;;;;5.50;4.90;;;;;;;6.35;78.59;99945.38;88178;1274;82565;-61
2022/04/20 04:12:11;;;;;;;8.00;5.20;;;;;;;6.38;78.27;99940.89;88192;1274;97220;-62
2022/04/20 04:14:19;;;;;;;8.50;5.70;;;;;;;6.39;78.44;99942.48;88198;1274;89253;-75
2022/04/20 04:16:36;;;;;;;6.30;4.80;;;;;;;6.41;78.56;99943.02;88175;1274;94255;-75
2022/04/20 04:18:48;;;;;;;8.40;4.70;;;;;;;6.49;78.42;99941.13;88093;1276;79588;-62
2022/04/20 04:20:57;;;;;;;5.90;4.60;;;;;;;6.53;78.54;99939.44;88186;1274;82122;-61
2022/04/20 04:23:06;;;;;;;8.70;6.00;;;;;;;6.54;78.47;99945.23;88186;1274;97875;-61
2022/04/20 04:25:15;;;;;;;7.70;5.20;;;;;;;6.57;78.48;99937.56;88191;1274;90112;-61
2022/04/20 04:27:24;;;;;;;9.50;6.10;;;;;;;6.59;78.53;99932.99;88174;1274;93220;-66
2022/04/20 04:29:34;;;;;;;8.30;5.00;;;;;;;6.57;78.78;99931.86;88197;1274;81098;-72
2022/04/20 04:31:47;;;;;;;9.20;5.70;;;;;;;6.58;78.73;99935.11;88208;1274;82932;-73
2022/04/20 04:33:56;;;;;;;8.60;5.40;;;;;;;6.59;78.69;99928.33;88196;1274;98162;-61
2022/04/20 04:36:08;;;;;;;6.00;5.00;;;;;;;6.61;78.81;99928.48;88195;1274;88636;-61
2022/04/20 04:38:23;;;;;;;6.10;4.90;;;;;;;6.62;78.62;99928.89;88192;1274;95674;-61
2022/04/20 04:40:32;;;;;;;8.10;5.80;;;;;;;6.60;78.73;99926.31;88185;1274;77899;-72
2022/04/20 04:42:44;;;;;;;8.00;5.70;;;;;;;6.61;78.58;99926.55;88189;1274;82844;-73
2022/04/20 04:44:53;;;;;;;7.00;5.10;;;;;;;6.59;78.62;99926.91;88205;1274;97658;-74
2022/04/20 04:49:33;;;;;;;6.20;5.00;;;;;;;6.53;78.93;99924.50;88142;1274;94299;-64
2022/04/20 04:51:43;;;;;;;7.30;5.10;;;;;;;6.58;78.96;99923.48;88190;1274;82240;-64
2022/04/20 04:53:55;;;;;;;5.50;4.10;;;;;;;6.59;79.16;99922.29;88171;1274;81086;-68
2022/04/20 04:56:04;;;;;;;7.90;5.20;;;;;;;6.62;79.09;99919.23;88171;1274;97656;-63
2022/04/20 04:58:15;;;;;;;4.80;4.00;;;;;;;6.67;78.99;99921.54;88211;1274;89261;-66
2022/04/20 05:00:28;;;;;;;5.30;4.20;;;;;;;6.69;78.98;99922.52;88181;1274;93900;-62
2022/04/20 05:02:41;;;;;;;4.00;3.60;;;;;;;6.72;79.08;99921.50;88192;1274;79851;-61
2022/04/20 05:04:53;;;;;;;6.50;3.70;;;;;;;6.79;78.98;99912.66;88225;1274;81724;-63
2022/04/20 05:07:03;;;;;;;5.40;4.00;;;;;;;6.81;78.95;99909.11;88204;1274;98479;-63
2022/04/20 05:09:12;;;;;;;5.30;3.90;;;;;;;6.82;78.95;99912.46;88199;1274;88944;-62
2022/04/20 05:11:22;;;;;;;6.10;3.80;;;;;;;6.82;78.97;99906.66;88185;1274;95771;-60
2022/04/20 05:13:31;;;;;;;6.90;4.40;;;;;;;6.88;79.05;99904.74;88168;1274;78358;-70
2022/04/20 05:15:40;;;;;;;5.80;4.40;;;;;;;6.88;79.02;99904.88;88201;1274;81395;-72
2022/04/20 05:17:50;;;;;;;6.60;4.40;;;;;;;6.92;79.04;99898.84;88188;1274;97473;-72
2022/04/20 05:20:03;;;;;;;6.60;4.20;;;;;;;6.94;79.15;99900.67;88196;1274;88784;-68
2022/04/20 05:22:16;;;;;;;5.20;4.10;;;;;;;6.92;78.98;99896.77;88152;1274;95774;-67
2022/04/20 05:24:25;;;;;;;7.00;4.50;;;;;;;6.96;78.96;99890.23;88192;1274;82002;-68
2022/04/20 05:26:35;;;;;;;5.60;3.90;;;;;;;7.01;78.93;99888.91;88203;1274;80874;-68
2022/04/20 05:28:43;;;;;;;7.00;4.50;;;;;;;7.03;79.10;99885.45;88174;1274;97583;-60
2022/04/20 05:30:55;;;;;;;7.00;4.50;;;;;;;7.04;79.00;99884.32;88168;1274;88687;-62
2022/04/20 05:33:04;;;;;;;5.60;3.90;;;;;;;7.06;78.96;99885.02;88211;1274;93247;-62
2022/04/20 05:35:16;;;;;;;5.40;4.10;;;;;;;7.07;79.09;99886.71;88179;1274;78603;-71
2022/04/20 05:42:21;;;;;;;7.60;5.20;;;;;;;7.11;79.15;99885.63;88175;1274;89553;-62
2022/04/20 05:44:29;;;;;;;6.20;4.60;;;;;;;7.14;79.21;99887.88;88182;1274;95925;-71
2022/04/20 05:46:39;;;;;;;8.90;5.50;;;;;;;7.09;79.18;99890.43;88178;1274;79280;-70
2022/04/20 05:48:51;;;;;;;8.90;4.80;;;;;;;7.08;79.25;99890.21;88215;1274;83792;-69
2022/04/20 05:51:00;;;;;;;7.20;4.80;;;;;;;7.09;79.45;99884.33;88193;1275;97381;-70
2022/04/20 05:53:13;;;;;;;8.40;5.70;;;;;;;7.09;79.25;99886.33;88175;1274;88591;-70
2022/04/20 05:55:22;;;;;;;7.70;5.30;;;;;;;7.08;79.32;99886.11;88183;1274;95560;-69
2022/04/20 05:57:31;;;;;;;6.00;4.10;;;;;;;7.05;79.30;99885.00;88180;1274;82590;-70
2022/04/20 05:59:42;;;;;;;7.20;4.50;;;;;;;7.02;79.34;99883.20;88139;1274;82899;-68
2022/04/20 06:01:52;;;;;;;8.10;4.80;;;;;;;7.04;79.62;99887.98;88191;1276;97095;-71
2022/04/20 06:04:01;;;;;;;6.30;4.60;;;;;;;7.12;79.65;99882.59;88175;1274;89226;-62
2022/04/20 06:06:10;;;;;;;9.20;5.00;;;;;;;7.18;79.49;99879.92;88187;1274;95034;-62
2022/04/20 06:08:22;;;;;;;8.30;4.90;;;;;;;7.18;79.56;99878.30;88177;1274;79806;-63
2022/04/20 06:10:34;;;;;;;6.10;4.40;;;;;;;7.18;79.65;99878.98;88206;1274;82781;-73
2022/04/20 06:12:43;;;;;;;7.20;4.20;;;;;;;7.18;79.52;99879.38;88182;1274;96977;-71
2022/04/20 06:14:52;;;;;;;7.30;4.30;;;;;;;7.17;79.75;99880.06;88213;1274;86647;-73
2022/04/20 06:17:01;;;;;;;4.60;3.70;;;;;;;7.17;79.55;99880.66;88165;1274;95131;-77
2022/04/20 06:19:10;;;;;;;5.70;3.70;;;;;;;7.15;79.59;99879.71;88204;1275;80624;-79
2022/04/20 06:21:19;;;;;;;5.20;4.00;;;;;;;7.14;79.60;99885.72;88199;1275;82612;-72
2022/04/20 06:23:30;;;;;;;6.00;4.40;;;;;;;7.16;79.43;99882.25;88199;1274;99235;-74
2022/04/20 06:25:39;;;;;;;5.60;4.20;;;;;;;7.20;79.52;99876.79;88154;1275;89575;-73
2022/04/20 06:27:48;;;;;;;6.00;4.60;;;;;;;7.24;79.43;99879.90;88180;1275;95396;-72
2022/04/20 06:29:57;;;;;;;5.80;4.30;;;;;;;7.29;79.44;99878.26;88187;1275;79634;-78
2022/04/20 06:32:08;;;;;;;4.90;4.10;;;;;;;7.34;79.77;99873.43;88185;1275;83107;-72
2022/04/20 06:34:17;;;;;;;6.30;4.40;;;;;;;7.40;79.53;99869.42;88205;1274;97231;-65
2022/04/20 06:36:27;;;;;;;5.60;4.30;;;;;;;7.47;79.55;99866.36;88201;1275;87405;-74
2022/04/20 06:38:36;;;;;;;5.50;3.90;;;;;;;7.46;79.62;99864.62;88189;1274;96724;-63
2022/04/20 06:40:45;;;;;;;6.30;4.40;;;;;;;7.46;79.56;99860.02;88109;1276;82625;-63
2022/04/20 06:42:54;;;;;;;6.50;4.50;;;;;;;7.49;79.61;99859.66;88198;1274;81559;-61
2022/04/20 06:45:03;;;;;;;5.10;4.00;;;;;;;7.54;79.70;99857.23;88145;1276;98778;-74
2022/04/20 06:47:16;;;;;;;7.00;4.60;;;;;;;7.54;79.46;99858.88;88186;1274;89602;-75
2022/04/20 06:49:25;;;;;;;8.00;4.70;;;;;;;7.54;79.43;99856.52;88219;1274;93625;-74
2022/04/20 06:58:57;;;;;;;7.20;5.90;;;;;;;7.55;79.75;99853.41;88152;1276;87159;-65
2022/04/20 07:01:07;;;;;;;8.90;7.30;;;;;;;7.58;79.70;99854.34;88138;1276;95459;-62
2022/04/20 07:03:23;;;;;;;7.10;5.70;;;;;;;7.62;79.73;99849.45;88170;1274;79770;-62
2022/04/20 07:05:36;;;;;;;5.60;4.20;;;;;;;7.69;79.68;99848.13;88158;1274;81448;-64
2022/04/20 07:07:48;;;;;;;5.80;3.70;;;;;;;7.76;79.45;99847.45;88199;1274;97464;-61
2022/04/20 07:10:00;;;;;;;4.10;3.50;;;;;;;7.83;79.48;99847.02;88196;1275;89128;-61
2022/04/20 07:12:10;;;;;;;6.10;4.10;;;;;;;7.88;79.38;99845.27;88166;1275;94404;-63
2022/04/20 07:14:22;;;;;;;7.00;4.20;;;;;;;7.94;79.54;99842.41;88207;1275;77533;-62
2022/04/20 07:16:31;;;;;;;5.30;3.80;;;;;;;7.98;79.20;99845.49;88175;1275;80624;-61
2022/04/20 07:18:43;;;;;;;5.20;3.60;;;;;;;7.94;79.46;99848.30;88187;1275;97458;-74
2022/04/20 07:20:55;;;;;;;6.40;4.20;;;;;;;7.90;79.28;99846.65;88187;1275;89611;-74
2022/04/20 07:23:07;;;;;;;6.20;4.00;;;;;;;7.92;79.21;99843.55;88162;1274;94604;-73
2022/04/20 07:25:20;;;;;;;5.40;3.70;;;;;;;7.98;79.26;99844.38;88145;1274;81950;-63
2022/04/20 07:27:32;;;;;;;5.70;4.30;;;;;;;7.99;79.28;99840.99;88204;1274;83383;-62
2022/04/20 07:29:44;;;;;;;5.00;3.80;;;;;;;8.01;79.33;99838.05;88167;1274;96117;-63
2022/04/20 07:31:53;;;;;;;5.30;3.90;;;;;;;8.01;79.59;99832.74;88176;1272;89387;-63
2022/04/20 07:34:03;;;;;;;6.00;4.10;;;;;;;8.05;79.62;99825.64;88179;1275;93224;-61
2022/04/20 07:36:12;;;;;;;5.80;4.60;;;;;;;8.13;79.74;99827.77;88176;1275;81177;-65
2022/04/20 07:38:24;;;;;;;6.40;4.20;;;;;;;8.29;79.85;99827.16;88135;1276;82882;-64
2022/04/20 07:40:34;;;;;;;7.20;4.10;;;;;;;8.53;79.86;99827.75;88182;1274;98126;-62
2022/04/20 07:42:46;;;;;;;6.20;4.10;;;;;;;8.77;79.78;99814.63;88192;1274;86303;-62
2022/04/20 07:44:59;;;;;;;4.90;3.70;;;;;;;8.87;79.60;99813.45;88171;1274;94941;-62
2022/04/20 07:47:09;;;;;;;7.30;3.90;;;;;;;9.03;79.84;99811.92;88143;1276;79495;-61
2022/04/20 07:51:48;;;;;;;5.30;3.90;;;;;;;9.44;79.11;99806.96;88197;1274;97417;-60
2022/04/20 07:53:58;;;;;;;6.40;4.30;;;;;;;9.60;79.00;99802.52;88093;1277;89042;-60
2022/04/20 07:56:08;;;;;;;5.50;3.90;;;;;;;9.83;78.97;99798.92;88046;1277;95271;-59
2022/04/20 07:58:26;;;;;;;6.00;3.90;;;;;;;11.10;81.04;99798.50;88203;1274;79893;-61
2022/04/20 08:00:38;;;;;;;4.70;3.70;;;;;;;13.22;80.48;99796.51;88218;1274;81380;-71
2022/04/20 08:02:48;;;;;;;4.30;3.40;;;;;;;14.74;78.96;99789.17;88217;1274;98998;-70
2022/04/20 08:05:00;;;;;;;3.70;3.30;;;;;;;16.02;76.24;99790.52;88169;1274;87770;-59
2022/04/20 08:07:09;;;;;;;3.60;3.00;;;;;;;15.85;73.63;99796.73;88191;1274;96028;-61
2022/04/20 08:09:19;;;;;;;4.00;3.10;;;;;;;14.95;71.77;99807.44;88139;1274;79756;-61
2022/04/20 08:11:31;;;;;;;3.50;3.20;;;;;;;14.08;71.19;99812.75;88209;1274;81755;-59
2022/04/20 08:16:10;;;;;;;5.20;4.00;;;;;;;13.25;70.83;99813.14;88193;1272;89828;-71
2022/04/20 08:18:26;;;;;;;3.60;3.30;;;;;;;12.81;70.25;99815.67;88182;1274;95385;-68
2022/04/20 08:20:35;;;;;;;4.80;3.70;;;;;;;12.23;70.21;99813.45;88179;1274;78707;-70
2022/04/20 08:22:47;;;;;;;4.40;3.60;;;;;;;11.76;70.33;99816.96;88197;1274;81552;-64
2022/04/20 08:24:56;;;;;;;4.00;3.50;;;;;;;11.66;70.52;99819.95;88190;1274;99281;-73
2022/04/20 08:27:06;;;;;;;5.40;4.20;;;;;;;11.45;70.79;99820.59;88216;1274;88020;-77
2022/04/20 08:29:15;;;;;;;4.00;3.40;;;;;;;11.17;70.75;99816.11;88197;1274;96016;-60
2022/04/20 08:31:24;;;;;;;4.40;3.70;;;;;;;10.99;70.90;99811.84;88162;1274;79445;-61
2022/04/20 08:33:36;;;;;;;5.00;4.30;;;;;;;10.80;70.75;99810.19;88197;1274;81052;-60
2022/04/20 08:35:45;;;;;;;9.10;5.80;;;;;;;10.63;70.93;99809.78;88201;1274;97423;-61
2022/04/20 08:37:58;;;;;;;7.70;6.80;;;;;;;10.43;71.19;99810.09;88190;1274;88630;-60
2022/04/20 08:40:09;;;;;;;6.50;5.40;;;;;;;10.26;71.38;99807.05;88198;1274;93505;-78
2022/04/20 08:42:21;;;;;;;5.10;4.50;;;;;;;10.16;71.70;99808.59;88128;1276;78196;-75
2022/04/20 08:44:32;;;;;;;5.00;4.60;;;;;;;10.03;71.86;99808.98;88186;1275;83214;-70
2022/04/20 08:46:46;;;;;;;5.30;3.90;;;;;;;9.89;71.88;99813.95;88193;1274;99513;-72
2022/04/20 08:48:54;;;;;;;;;;;;;;;9.78;72.16;99813.95;88204;1274;87792;-72
2022/04/20 08:51:08;;;;;;;4.90;3.90;;;;;;;9.65;72.34;99816.74;88165;1274;95713;-72
2022/04/20 08:53:22;;;;;;;4.50;3.70;;;;;;;9.63;72.52;99813.43;88166;1274;79019;-73
2022/04/20 08:55:34;;;;;;;5.10;4.00;;;;;;;9.59;72.96;99814.12;88199;1274;82307;-59
2022/04/20 08:57:49;;;;;;;6.00;4.10;;;;;;;9.61;72.96;99814.43;88184;1274;98713;-59
2022/04/20 09:00:02;;;;;;;5.20;4.20;;;;;;;9.62;73.09;99817.37;88199;1274;87049;-73
2022/04/20 09:02:15;;;;;;;4.60;3.60;;;;;;;9.71;73.22;99818.11;88179;1274;94272;-59
2022/04/20 09:04:27;;;;;;;5.50;4.10;;;;;;;9.74;73.39;99820.12;88187;1274;82897;-73
2022/04/20 09:06:37;;;;;;;5.60;3.70;;;;;;;9.76;73.40;99818.96;88201;1275;81527;-70
2022/04/20 09:08:47;;;;;;;6.30;4.00;;;;;;;9.84;73.54;99820.55;88164;1274;96714;-72
2022/04/20 09:11:01;;;;;;;5.40;4.10;;;;;;;9.86;73.54;99824.51;88215;1274;86770;-72
2022/04/20 09:13:14;;;;;;;5.60;4.40;;;;;;;9.83;73.58;99825.27;88170;1274;95109;-71
2022/04/20 09:15:35;;;;;;;4.90;4.00;;;;;;;9.82;73.70;99830.23;88200;1274;80427;-73
2022/04/20 09:17:49;;;;;;;5.70;4.20;;;;;;;9.71;73.60;99833.58;88217;1274;81095;-72
2022/04/20 09:20:01;;;;;;;5.60;4.40;;;;;;;9.66;73.57;99834.58;88183;1274;97252;-61
2022/04/20 09:22:26;;;;;;;4.60;4.00;;;;;;;9.55;73.54;99844.14;88203;1274;89424;-60
2022/04/20 09:24:35;;;;;;;5.00;3.70;;;;;;;9.44;73.62;99851.38;88183;1274;95543;-59
2022/04/20 09:26:57;;;;;;;6.30;4.60;;;;;;;9.29;73.78;99847.11;88128;1276;79864;-60
2022/04/20 09:29:10;;;;;;;6.90;4.90;;;;;;;9.18;73.82;99840.55;88179;1274;83880;-71
2022/04/20 09:31:39;;;;;;;6.80;5.10;;;;;;;9.11;73.95;99833.60;88203;1274;98580;-71
2022/04/20 09:33:53;;;;;;;6.50;4.50;;;;;;;9.07;74.22;99831.46;88187;1274;88585;-71
2022/04/20 09:36:02;;;;;;;5.70;4.60;;;;;;;9.10;74.28;99834.33;88153;1274;95747;-74
2022/04/20 09:38:18;;;;;;;6.10;4.70;;;;;;;9.11;74.30;99840.52;88156;1275;80937;-72
2022/04/20 09:40:35;;;;;;;6.20;4.60;;;;;;;9.09;74.36;99841.79;88169;1274;82735;-70
2022/04/20 09:43:02;;;;;;;5.90;4.30;;;;;;;9.08;74.37;99844.06;88206;1274;97640;-67
2022/04/20 09:45:12;;;;;;;6.60;5.00;;;;;;;9.11;74.62;99844.22;88169;1276;86885;-74
2022/04/20 09:50:01;;;;;;;8.30;5.30;;;;;;;9.21;74.69;99842.77;88174;1276;81614;-60
2022/04/20 09:52:14;;;;;;;5.80;4.50;;;;;;;9.33;74.75;99853.04;88182;1276;83318;-60
2022/04/20 09:54:31;;;;;;;7.10;4.90;;;;;;;9.39;74.57;99855.00;88196;1275;98712;-70
2022/04/20 09:56:40;;;;;;;6.50;4.90;;;;;;;9.43;74.42;99863.52;88159;1276;89186;-68
2022/04/20 09:59:00;;;;;;;5.50;5.00;;;;;;;9.47;74.47;99866.21;88172;1275;95130;-68
2022/04/20 10:01:27;;;;;;;7.80;5.70;;;;;;;9.55;74.52;99867.56;88167;1276;81680;-67
2022/04/20 10:03:40;;;;;;;6.60;5.50;;;;;;;9.53;74.62;99866.34;88208;1276;80129;-68
2022/04/20 10:05:49;;;;;;;7.60;5.60;;;;;;;9.55;74.51;99870.25;88184;1274;99245;-68
2022/04/20 10:07:59;;;;;;;5.50;4.70;;;;;;;9.64;74.57;99868.35;88174;1275;88506;-68
2022/04/20 10:10:11;;;;;;;5.80;4.90;;;;;;;9.83;74.46;99867.81;88182;1275;94619;-66
2022/04/20 10:12:21;;;;;;;6.60;5.30;;;;;;;10.17;74.44;99869.77;88175;1274;80680;-69
2022/04/20 10:17:06;;;;;;;7.10;5.60;;;;;;;10.73;73.56;99858.81;88176;1274;98167;-72
2022/04/20 10:19:21;;;;;;;7.00;4.80;;;;;;;10.99;73.46;99861.08;88161;1274;89495;-69
2022/04/20 10:21:37;;;;;;;10.00;6.40;;;;;;;11.06;72.99;99860.63;88191;1276;95632;-70
2022/04/20 10:23:51;;;;;;;6.70;4.90;;;;;;;11.03;72.78;99862.20;88175;1275;78623;-62
2022/04/20 10:25:59;;;;;;;;;;;;;;;11.13;72.43;99854.90;88025;1279;81743;-60
2022/04/20 10:28:18;;;;;;;6.00;5.10;;;;;;;11.16;72.37;99856.55;88047;1278;100877;-61
2022/04/20 10:30:46;;;;;;;5.90;5.10;;;;;;;11.06;72.05;99855.59;88208;1274;87161;-60
2022/04/20 10:33:06;;;;;;;5.90;4.90;;;;;;;10.89;71.57;99858.63;88144;1276;93936;-60
2022/04/20 10:35:19;;;;;;;6.40;5.50;;;;;;;10.81;71.28;99871.05;88136;1275;78303;-60
2022/04/20 10:37:31;;;;;;;5.40;4.90;;;;;;;10.78;70.99;99872.40;88194;1274;81837;-62
2022/04/20 10:39:43;;;;;;;7.70;5.80;;;;;;;10.76;70.69;99877.23;88173;1276;97495;-68
2022/04/20 10:42:27;;;;;;;7.10;5.30;;;;;;;10.65;70.93;99876.72;88192;1276;89134;-69
2022/04/20 10:45:04;;;;;;;7.00;5.70;;;;;;;10.51;70.79;99875.64;88172;1276;95192;-61
2022/04/20 10:47:22;;;;;;;6.30;5.60;;;;;;;10.27;71.17;99873.61;88185;1274;79457;-60
2022/04/20 10:49:35;;;;;;;7.10;5.90;;;;;;;10.12;71.45;99875.22;88193;1274;83152;-65
2022/04/20 10:51:49;;;;;;;8.10;5.80;;;;;;;10.05;71.82;99880.45;88196;1275;98119;-60
2022/04/20 10:54:29;;;;;;;6.90;6.00;;;;;;;10.04;72.23;99875.70;88094;1279;87752;-61